sensor_id;sensor_type;location;lat;lon;timestamp;P1;durP1;ratioP1;P2;durP2;ratioP2
15130;SDS011;7666;50.920;4.628;2023-03-04T00:02:22;18.17;;;9.13;;
15130;SDS011;7666;50.920;4.628;2023-03-04T00:05:08;15.43;;;9.20;;
15130;SDS011;7666;50.920;4.628;2023-03-04T00:07:54;20.57;;;11.10;;
15130;SDS011;7666;50.920;4.628;2023-03-04T00:10:40;17.03;;;10.37;;
15130;SDS011;7666;50.920;4.628;2023-03-04T00:13:26;18.17;;;10.00;;
15130;SDS011;7666;50.920;4.628;2023-03-04T00:16:12;21.27;;;10.60;;
15130;SDS011;7666;50.920;4.628;2023-03-04T00:18:58;16.60;;;10.20;;
15130;SDS011;7666;50.920;4.628;2023-03-04T00:21:44;14.20;;;9.70;;
15130;SDS011;7666;50.920;4.628;2023-03-04T00:24:30;18.40;;;10.43;;
15130;SDS011;7666;50.920;4.628;2023-03-04T00:27:16;15.07;;;10.63;;
15130;SDS011;7666;50.920;4.628;2023-03-04T00:30:03;19.10;;;10.57;;
15130;SDS011;7666;50.920;4.628;2023-03-04T00:32:50;15.87;;;10.73;;
15130;SDS011;7666;50.920;4.628;2023-03-04T00:35:36;14.43;;;10.10;;
15130;SDS011;7666;50.920;4.628;2023-03-04T00:38:22;21.13;;;10.10;;
15130;SDS011;7666;50.920;4.628;2023-03-04T00:41:08;20.37;;;9.77;;
15130;SDS011;7666;50.920;4.628;2023-03-04T00:43:54;14.50;;;9.47;;
15130;SDS011;7666;50.920;4.628;2023-03-04T00:46:40;16.73;;;9.97;;
15130;SDS011;7666;50.920;4.628;2023-03-04T00:49:26;15.70;;;8.60;;
15130;SDS011;7666;50.920;4.628;2023-03-04T00:52:12;17.60;;;9.20;;
15130;SDS011;7666;50.920;4.628;2023-03-04T00:54:58;16.73;;;8.97;;
15130;SDS011;7666;50.920;4.628;2023-03-04T00:57:44;14.10;;;9.07;;
15130;SDS011;7666;50.920;4.628;2023-03-04T01:00:30;14.27;;;8.70;;
15130;SDS011;7666;50.920;4.628;2023-03-04T01:03:16;21.00;;;9.57;;
15130;SDS011;7666;50.920;4.628;2023-03-04T01:06:02;20.40;;;9.03;;
15130;SDS011;7666;50.920;4.628;2023-03-04T01:08:48;14.53;;;8.97;;
15130;SDS011;7666;50.920;4.628;2023-03-04T01:11:34;15.33;;;7.87;;
15130;SDS011;7666;50.920;4.628;2023-03-04T01:14:20;12.77;;;8.80;;
15130;SDS011;7666;50.920;4.628;2023-03-04T01:17:06;17.10;;;9.03;;
15130;SDS011;7666;50.920;4.628;2023-03-04T01:19:52;16.53;;;8.93;;
15130;SDS011;7666;50.920;4.628;2023-03-04T01:22:38;18.60;;;9.80;;
15130;SDS011;7666;50.920;4.628;2023-03-04T01:25:24;16.00;;;8.13;;
15130;SDS011;7666;50.920;4.628;2023-03-04T01:28:10;20.27;;;8.63;;
15130;SDS011;7666;50.920;4.628;2023-03-04T01:30:56;20.43;;;8.60;;
15130;SDS011;7666;50.920;4.628;2023-03-04T01:33:42;17.87;;;8.00;;
15130;SDS011;7666;50.920;4.628;2023-03-04T01:36:28;15.43;;;7.60;;
15130;SDS011;7666;50.920;4.628;2023-03-04T01:39:14;20.43;;;7.90;;
15130;SDS011;7666;50.920;4.628;2023-03-04T01:42:00;17.47;;;7.87;;
15130;SDS011;7666;50.920;4.628;2023-03-04T01:44:46;17.27;;;7.17;;
15130;SDS011;7666;50.920;4.628;2023-03-04T01:47:33;13.57;;;7.30;;
15130;SDS011;7666;50.920;4.628;2023-03-04T01:50:31;15.53;;;7.10;;
15130;SDS011;7666;50.920;4.628;2023-03-04T01:53:20;15.03;;;6.50;;
15130;SDS011;7666;50.920;4.628;2023-03-04T01:56:29;19.90;;;7.23;;
15130;SDS011;7666;50.920;4.628;2023-03-04T01:59:23;14.67;;;6.40;;
15130;SDS011;7666;50.920;4.628;2023-03-04T02:02:11;16.70;;;7.50;;
15130;SDS011;7666;50.920;4.628;2023-03-04T02:04:58;15.83;;;6.37;;
15130;SDS011;7666;50.920;4.628;2023-03-04T02:07:44;12.33;;;6.13;;
15130;SDS011;7666;50.920;4.628;2023-03-04T02:10:30;15.37;;;6.57;;
15130;SDS011;7666;50.920;4.628;2023-03-04T02:13:16;14.90;;;6.80;;
15130;SDS011;7666;50.920;4.628;2023-03-04T02:16:02;13.67;;;6.63;;
15130;SDS011;7666;50.920;4.628;2023-03-04T02:18:49;14.97;;;6.77;;
15130;SDS011;7666;50.920;4.628;2023-03-04T02:21:35;16.17;;;7.40;;
15130;SDS011;7666;50.920;4.628;2023-03-04T02:27:32;16.20;;;7.03;;
15130;SDS011;7666;50.920;4.628;2023-03-04T02:30:19;13.83;;;7.43;;
15130;SDS011;7666;50.920;4.628;2023-03-04T02:33:14;11.20;;;6.67;;
15130;SDS011;7666;50.920;4.628;2023-03-04T02:36:02;16.30;;;7.50;;
15130;SDS011;7666;50.920;4.628;2023-03-04T02:38:49;15.73;;;7.30;;
15130;SDS011;7666;50.920;4.628;2023-03-04T02:41:37;15.70;;;6.07;;
15130;SDS011;7666;50.920;4.628;2023-03-04T02:44:24;13.43;;;6.47;;
15130;SDS011;7666;50.920;4.628;2023-03-04T02:47:13;18.93;;;6.30;;
15130;SDS011;7666;50.920;4.628;2023-03-04T02:50:02;17.50;;;6.60;;
15130;SDS011;7666;50.920;4.628;2023-03-04T02:52:49;15.70;;;6.60;;
15130;SDS011;7666;50.920;4.628;2023-03-04T02:55:35;13.83;;;5.83;;
15130;SDS011;7666;50.920;4.628;2023-03-04T02:58:21;13.50;;;6.00;;
15130;SDS011;7666;50.920;4.628;2023-03-04T03:01:07;15.70;;;5.63;;
15130;SDS011;7666;50.920;4.628;2023-03-04T03:03:53;13.90;;;5.90;;
15130;SDS011;7666;50.920;4.628;2023-03-04T03:06:39;16.77;;;6.40;;
15130;SDS011;7666;50.920;4.628;2023-03-04T03:09:25;16.83;;;6.10;;
15130;SDS011;7666;50.920;4.628;2023-03-04T03:12:11;14.70;;;6.27;;
15130;SDS011;7666;50.920;4.628;2023-03-04T03:14:57;16.80;;;6.40;;
15130;SDS011;7666;50.920;4.628;2023-03-04T03:17:43;18.13;;;6.47;;
15130;SDS011;7666;50.920;4.628;2023-03-04T03:20:29;17.87;;;6.50;;
15130;SDS011;7666;50.920;4.628;2023-03-04T03:23:15;18.60;;;6.43;;
15130;SDS011;7666;50.920;4.628;2023-03-04T03:26:03;17.53;;;6.83;;
15130;SDS011;7666;50.920;4.628;2023-03-04T03:28:50;14.87;;;6.07;;
15130;SDS011;7666;50.920;4.628;2023-03-04T03:31:36;14.43;;;6.30;;
15130;SDS011;7666;50.920;4.628;2023-03-04T03:34:22;16.00;;;6.47;;
15130;SDS011;7666;50.920;4.628;2023-03-04T03:37:08;18.70;;;6.13;;
15130;SDS011;7666;50.920;4.628;2023-03-04T03:39:54;14.60;;;6.37;;
15130;SDS011;7666;50.920;4.628;2023-03-04T03:42:40;13.43;;;5.93;;
15130;SDS011;7666;50.920;4.628;2023-03-04T03:45:26;17.80;;;6.70;;
15130;SDS011;7666;50.920;4.628;2023-03-04T03:48:12;14.50;;;6.03;;
15130;SDS011;7666;50.920;4.628;2023-03-04T03:50:58;16.77;;;6.50;;
15130;SDS011;7666;50.920;4.628;2023-03-04T03:53:43;17.70;;;6.63;;
15130;SDS011;7666;50.920;4.628;2023-03-04T03:56:29;17.27;;;6.27;;
15130;SDS011;7666;50.920;4.628;2023-03-04T03:59:15;18.67;;;6.40;;
15130;SDS011;7666;50.920;4.628;2023-03-04T04:02:01;16.70;;;6.53;;
15130;SDS011;7666;50.920;4.628;2023-03-04T04:04:47;16.10;;;6.67;;
15130;SDS011;7666;50.920;4.628;2023-03-04T04:07:34;16.30;;;6.37;;
15130;SDS011;7666;50.920;4.628;2023-03-04T04:10:20;12.13;;;5.97;;
15130;SDS011;7666;50.920;4.628;2023-03-04T04:13:07;20.00;;;6.00;;
15130;SDS011;7666;50.920;4.628;2023-03-04T04:15:53;14.47;;;5.40;;
15130;SDS011;7666;50.920;4.628;2023-03-04T04:18:39;20.63;;;6.20;;
15130;SDS011;7666;50.920;4.628;2023-03-04T04:21:25;12.30;;;4.80;;
15130;SDS011;7666;50.920;4.628;2023-03-04T04:24:11;15.67;;;5.07;;
15130;SDS011;7666;50.920;4.628;2023-03-04T04:26:57;14.93;;;5.10;;
15130;SDS011;7666;50.920;4.628;2023-03-04T04:29:43;11.73;;;4.73;;
15130;SDS011;7666;50.920;4.628;2023-03-04T04:32:29;18.87;;;5.73;;
15130;SDS011;7666;50.920;4.628;2023-03-04T04:35:15;15.90;;;5.27;;
15130;SDS011;7666;50.920;4.628;2023-03-04T04:38:01;14.33;;;4.97;;
15130;SDS011;7666;50.920;4.628;2023-03-04T04:40:47;15.00;;;5.17;;
15130;SDS011;7666;50.920;4.628;2023-03-04T04:43:33;12.47;;;5.13;;
15130;SDS011;7666;50.920;4.628;2023-03-04T04:46:21;16.50;;;5.67;;
15130;SDS011;7666;50.920;4.628;2023-03-04T04:49:07;13.20;;;5.30;;
15130;SDS011;7666;50.920;4.628;2023-03-04T04:51:53;13.80;;;6.00;;
15130;SDS011;7666;50.920;4.628;2023-03-04T04:54:39;18.83;;;6.00;;
15130;SDS011;7666;50.920;4.628;2023-03-04T04:57:25;19.07;;;5.77;;
15130;SDS011;7666;50.920;4.628;2023-03-04T05:00:11;16.13;;;5.77;;
15130;SDS011;7666;50.920;4.628;2023-03-04T05:02:58;12.30;;;5.53;;
15130;SDS011;7666;50.920;4.628;2023-03-04T05:05:44;17.17;;;5.43;;
15130;SDS011;7666;50.920;4.628;2023-03-04T05:08:30;13.30;;;5.83;;
15130;SDS011;7666;50.920;4.628;2023-03-04T05:11:17;18.07;;;6.03;;
15130;SDS011;7666;50.920;4.628;2023-03-04T05:14:03;12.77;;;5.63;;
15130;SDS011;7666;50.920;4.628;2023-03-04T05:16:49;15.77;;;5.87;;
15130;SDS011;7666;50.920;4.628;2023-03-04T05:19:37;12.17;;;6.10;;
15130;SDS011;7666;50.920;4.628;2023-03-04T05:22:23;12.77;;;6.23;;
15130;SDS011;7666;50.920;4.628;2023-03-04T05:25:09;17.07;;;6.20;;
15130;SDS011;7666;50.920;4.628;2023-03-04T05:27:55;12.10;;;6.33;;
15130;SDS011;7666;50.920;4.628;2023-03-04T05:30:41;12.77;;;6.37;;
15130;SDS011;7666;50.920;4.628;2023-03-04T05:33:28;17.57;;;6.50;;
15130;SDS011;7666;50.920;4.628;2023-03-04T05:36:15;12.63;;;6.23;;
15130;SDS011;7666;50.920;4.628;2023-03-04T05:39:01;13.27;;;6.53;;
15130;SDS011;7666;50.920;4.628;2023-03-04T05:41:47;19.67;;;8.13;;
15130;SDS011;7666;50.920;4.628;2023-03-04T05:44:33;16.40;;;7.70;;
15130;SDS011;7666;50.920;4.628;2023-03-04T05:47:19;16.23;;;7.63;;
15130;SDS011;7666;50.920;4.628;2023-03-04T05:50:05;15.13;;;7.00;;
15130;SDS011;7666;50.920;4.628;2023-03-04T05:52:51;13.20;;;6.80;;
15130;SDS011;7666;50.920;4.628;2023-03-04T05:55:37;12.43;;;6.93;;
15130;SDS011;7666;50.920;4.628;2023-03-04T05:58:23;11.93;;;6.37;;
15130;SDS011;7666;50.920;4.628;2023-03-04T06:01:10;14.07;;;6.80;;
15130;SDS011;7666;50.920;4.628;2023-03-04T06:03:56;13.80;;;6.80;;
15130;SDS011;7666;50.920;4.628;2023-03-04T06:06:42;13.87;;;7.10;;
15130;SDS011;7666;50.920;4.628;2023-03-04T06:09:28;14.53;;;6.43;;
15130;SDS011;7666;50.920;4.628;2023-03-04T06:12:14;19.13;;;7.07;;
15130;SDS011;7666;50.920;4.628;2023-03-04T06:15:00;13.57;;;6.80;;
15130;SDS011;7666;50.920;4.628;2023-03-04T06:17:47;16.03;;;7.57;;
15130;SDS011;7666;50.920;4.628;2023-03-04T06:20:33;17.37;;;7.97;;
15130;SDS011;7666;50.920;4.628;2023-03-04T06:23:19;15.00;;;8.13;;
15130;SDS011;7666;50.920;4.628;2023-03-04T06:26:05;16.27;;;7.17;;
15130;SDS011;7666;50.920;4.628;2023-03-04T06:28:53;13.80;;;7.23;;
15130;SDS011;7666;50.920;4.628;2023-03-04T06:31:41;13.67;;;8.00;;
15130;SDS011;7666;50.920;4.628;2023-03-04T06:34:27;12.87;;;7.70;;
15130;SDS011;7666;50.920;4.628;2023-03-04T06:37:14;16.43;;;8.23;;
15130;SDS011;7666;50.920;4.628;2023-03-04T06:40:00;20.90;;;8.27;;
15130;SDS011;7666;50.920;4.628;2023-03-04T06:42:47;15.23;;;8.30;;
15130;SDS011;7666;50.920;4.628;2023-03-04T06:45:33;16.07;;;8.53;;
15130;SDS011;7666;50.920;4.628;2023-03-04T06:48:19;15.93;;;8.17;;
15130;SDS011;7666;50.920;4.628;2023-03-04T06:51:06;15.60;;;8.77;;
15130;SDS011;7666;50.920;4.628;2023-03-04T06:53:53;18.03;;;6.60;;
15130;SDS011;7666;50.920;4.628;2023-03-04T06:56:39;13.13;;;6.60;;
15130;SDS011;7666;50.920;4.628;2023-03-04T06:59:25;26.43;;;6.50;;
15130;SDS011;7666;50.920;4.628;2023-03-04T07:02:11;12.33;;;5.43;;
15130;SDS011;7666;50.920;4.628;2023-03-04T07:04:57;13.00;;;5.57;;
15130;SDS011;7666;50.920;4.628;2023-03-04T07:07:43;14.53;;;5.87;;
15130;SDS011;7666;50.920;4.628;2023-03-04T07:10:29;11.03;;;5.77;;
15130;SDS011;7666;50.920;4.628;2023-03-04T07:13:15;16.17;;;4.87;;
15130;SDS011;7666;50.920;4.628;2023-03-04T07:16:01;12.67;;;5.33;;
15130;SDS011;7666;50.920;4.628;2023-03-04T07:18:48;11.07;;;4.70;;
15130;SDS011;7666;50.920;4.628;2023-03-04T07:21:34;10.40;;;4.40;;
15130;SDS011;7666;50.920;4.628;2023-03-04T07:24:20;10.90;;;3.53;;
15130;SDS011;7666;50.920;4.628;2023-03-04T07:27:06;14.70;;;3.87;;
15130;SDS011;7666;50.920;4.628;2023-03-04T07:29:52;10.33;;;4.00;;
15130;SDS011;7666;50.920;4.628;2023-03-04T07:32:38;11.03;;;4.13;;
15130;SDS011;7666;50.920;4.628;2023-03-04T07:35:24;9.67;;;3.53;;
15130;SDS011;7666;50.920;4.628;2023-03-04T07:38:10;11.83;;;3.90;;
15130;SDS011;7666;50.920;4.628;2023-03-04T07:40:56;10.00;;;3.50;;
15130;SDS011;7666;50.920;4.628;2023-03-04T07:43:43;15.47;;;3.97;;
15130;SDS011;7666;50.920;4.628;2023-03-04T07:46:29;14.20;;;3.50;;
15130;SDS011;7666;50.920;4.628;2023-03-04T07:49:15;11.50;;;4.10;;
15130;SDS011;7666;50.920;4.628;2023-03-04T07:52:02;11.80;;;3.67;;
15130;SDS011;7666;50.920;4.628;2023-03-04T07:54:49;9.73;;;3.70;;
15130;SDS011;7666;50.920;4.628;2023-03-04T07:57:37;10.93;;;3.37;;
15130;SDS011;7666;50.920;4.628;2023-03-04T08:00:24;9.63;;;3.87;;
15130;SDS011;7666;50.920;4.628;2023-03-04T08:03:10;12.40;;;4.23;;
15130;SDS011;7666;50.920;4.628;2023-03-04T08:05:56;10.57;;;3.90;;
15130;SDS011;7666;50.920;4.628;2023-03-04T08:08:42;12.23;;;3.80;;
15130;SDS011;7666;50.920;4.628;2023-03-04T08:11:29;10.17;;;3.60;;
15130;SDS011;7666;50.920;4.628;2023-03-04T08:14:15;12.40;;;3.83;;
15130;SDS011;7666;50.920;4.628;2023-03-04T08:17:01;12.67;;;3.77;;
15130;SDS011;7666;50.920;4.628;2023-03-04T08:19:47;9.53;;;3.67;;
15130;SDS011;7666;50.920;4.628;2023-03-04T08:22:33;14.63;;;4.00;;
15130;SDS011;7666;50.920;4.628;2023-03-04T08:25:19;18.23;;;3.40;;
15130;SDS011;7666;50.920;4.628;2023-03-04T08:28:06;8.03;;;2.87;;
15130;SDS011;7666;50.920;4.628;2023-03-04T08:30:53;7.23;;;3.20;;
15130;SDS011;7666;50.920;4.628;2023-03-04T08:33:39;12.33;;;4.10;;
15130;SDS011;7666;50.920;4.628;2023-03-04T08:36:25;15.83;;;3.37;;
15130;SDS011;7666;50.920;4.628;2023-03-04T08:39:12;5.47;;;2.33;;
15130;SDS011;7666;50.920;4.628;2023-03-04T08:41:59;8.43;;;2.50;;
15130;SDS011;7666;50.920;4.628;2023-03-04T08:44:45;9.03;;;2.73;;
15130;SDS011;7666;50.920;4.628;2023-03-04T08:47:31;6.97;;;2.50;;
15130;SDS011;7666;50.920;4.628;2023-03-04T08:50:17;6.20;;;2.10;;
15130;SDS011;7666;50.920;4.628;2023-03-04T08:53:03;7.33;;;1.53;;
15130;SDS011;7666;50.920;4.628;2023-03-04T08:55:50;6.00;;;1.90;;
15130;SDS011;7666;50.920;4.628;2023-03-04T08:58:37;5.90;;;1.70;;
15130;SDS011;7666;50.920;4.628;2023-03-04T09:01:23;8.10;;;1.90;;
15130;SDS011;7666;50.920;4.628;2023-03-04T09:04:09;10.70;;;2.23;;
15130;SDS011;7666;50.920;4.628;2023-03-04T09:06:55;4.63;;;1.97;;
15130;SDS011;7666;50.920;4.628;2023-03-04T09:09:41;4.67;;;1.63;;
15130;SDS011;7666;50.920;4.628;2023-03-04T09:12:27;6.83;;;2.10;;
15130;SDS011;7666;50.920;4.628;2023-03-04T09:15:13;9.23;;;2.23;;
15130;SDS011;7666;50.920;4.628;2023-03-04T09:18:00;6.63;;;1.90;;
15130;SDS011;7666;50.920;4.628;2023-03-04T09:20:47;5.10;;;1.70;;
15130;SDS011;7666;50.920;4.628;2023-03-04T09:23:34;6.40;;;1.97;;
15130;SDS011;7666;50.920;4.628;2023-03-04T09:26:22;7.30;;;2.13;;
15130;SDS011;7666;50.920;4.628;2023-03-04T09:29:09;5.40;;;2.40;;
15130;SDS011;7666;50.920;4.628;2023-03-04T09:31:56;7.27;;;2.40;;
15130;SDS011;7666;50.920;4.628;2023-03-04T09:34:42;8.77;;;2.33;;
15130;SDS011;7666;50.920;4.628;2023-03-04T09:37:28;5.33;;;1.90;;
15130;SDS011;7666;50.920;4.628;2023-03-04T09:40:20;6.50;;;1.90;;
15130;SDS011;7666;50.920;4.628;2023-03-04T09:43:26;7.20;;;2.27;;
15130;SDS011;7666;50.920;4.628;2023-03-04T09:46:15;5.63;;;2.10;;
15130;SDS011;7666;50.920;4.628;2023-03-04T09:49:08;7.90;;;2.03;;
15130;SDS011;7666;50.920;4.628;2023-03-04T09:54:57;5.30;;;1.80;;
15130;SDS011;7666;50.920;4.628;2023-03-04T09:57:52;8.13;;;2.00;;
15130;SDS011;7666;50.920;4.628;2023-03-04T10:00:45;5.67;;;1.50;;
15130;SDS011;7666;50.920;4.628;2023-03-04T10:03:41;5.07;;;2.00;;
15130;SDS011;7666;50.920;4.628;2023-03-04T10:06:29;5.30;;;1.60;;
15130;SDS011;7666;50.920;4.628;2023-03-04T10:09:17;7.40;;;2.00;;
15130;SDS011;7666;50.920;4.628;2023-03-04T10:12:12;5.03;;;2.00;;
15130;SDS011;7666;50.920;4.628;2023-03-04T10:15:03;4.53;;;2.10;;
15130;SDS011;7666;50.920;4.628;2023-03-04T10:18:23;6.50;;;2.00;;
15130;SDS011;7666;50.920;4.628;2023-03-04T10:24:15;9.63;;;2.17;;
15130;SDS011;7666;50.920;4.628;2023-03-04T10:27:04;8.23;;;3.30;;
15130;SDS011;7666;50.920;4.628;2023-03-04T10:29:55;8.20;;;2.83;;
15130;SDS011;7666;50.920;4.628;2023-03-04T10:32:46;4.00;;;2.20;;
15130;SDS011;7666;50.920;4.628;2023-03-04T10:35:33;5.17;;;2.17;;
15130;SDS011;7666;50.920;4.628;2023-03-04T10:38:22;7.43;;;2.50;;
15130;SDS011;7666;50.920;4.628;2023-03-04T10:41:13;5.27;;;2.40;;
15130;SDS011;7666;50.920;4.628;2023-03-04T10:46:54;8.60;;;3.43;;
15130;SDS011;7666;50.920;4.628;2023-03-04T10:53:09;8.70;;;3.43;;
15130;SDS011;7666;50.920;4.628;2023-03-04T10:56:37;7.97;;;2.80;;
15130;SDS011;7666;50.920;4.628;2023-03-04T11:08:14;6.43;;;3.17;;
15130;SDS011;7666;50.920;4.628;2023-03-04T11:11:27;7.90;;;2.90;;
15130;SDS011;7666;50.920;4.628;2023-03-04T11:14:23;10.00;;;3.73;;
15130;SDS011;7666;50.920;4.628;2023-03-04T11:17:26;7.07;;;3.10;;
15130;SDS011;7666;50.920;4.628;2023-03-04T11:20:29;6.73;;;3.30;;
15130;SDS011;7666;50.920;4.628;2023-03-04T11:26:18;6.10;;;2.90;;
15130;SDS011;7666;50.920;4.628;2023-03-04T11:32:24;4.00;;;2.70;;
15130;SDS011;7666;50.920;4.628;2023-03-04T11:38:20;7.67;;;2.90;;
15130;SDS011;7666;50.920;4.628;2023-03-04T11:41:10;4.83;;;2.27;;
15130;SDS011;7666;50.920;4.628;2023-03-04T11:44:01;5.30;;;2.40;;
15130;SDS011;7666;50.920;4.628;2023-03-04T11:49:49;5.60;;;2.10;;
15130;SDS011;7666;50.920;4.628;2023-03-04T11:56:17;3.20;;;1.87;;
15130;SDS011;7666;50.920;4.628;2023-03-04T12:02:21;3.80;;;1.70;;
15130;SDS011;7666;50.920;4.628;2023-03-04T12:05:16;6.63;;;1.90;;
15130;SDS011;7666;50.920;4.628;2023-03-04T12:08:32;3.27;;;1.70;;
15130;SDS011;7666;50.920;4.628;2023-03-04T12:12:01;7.00;;;2.20;;
15130;SDS011;7666;50.920;4.628;2023-03-04T12:15:01;10.00;;;3.50;;
15130;SDS011;7666;50.920;4.628;2023-03-04T12:24:07;10.97;;;4.10;;
15130;SDS011;7666;50.920;4.628;2023-03-04T12:27:07;10.23;;;3.97;;
15130;SDS011;7666;50.920;4.628;2023-03-04T12:30:14;7.37;;;3.70;;
15130;SDS011;7666;50.920;4.628;2023-03-04T12:36:30;8.07;;;3.57;;
15130;SDS011;7666;50.920;4.628;2023-03-04T12:48:30;8.37;;;4.10;;
15130;SDS011;7666;50.920;4.628;2023-03-04T12:54:33;6.60;;;4.37;;
15130;SDS011;7666;50.920;4.628;2023-03-04T12:57:25;12.33;;;5.17;;
15130;SDS011;7666;50.920;4.628;2023-03-04T13:00:39;7.20;;;4.37;;
15130;SDS011;7666;50.920;4.628;2023-03-04T13:03:54;10.67;;;4.17;;
15130;SDS011;7666;50.920;4.628;2023-03-04T13:06:58;8.57;;;4.60;;
15130;SDS011;7666;50.920;4.628;2023-03-04T13:10:10;7.17;;;4.30;;
15130;SDS011;7666;50.920;4.628;2023-03-04T13:12:59;8.63;;;4.97;;
15130;SDS011;7666;50.920;4.628;2023-03-04T13:15:46;10.13;;;5.10;;
15130;SDS011;7666;50.920;4.628;2023-03-04T13:18:50;7.00;;;5.13;;
15130;SDS011;7666;50.920;4.628;2023-03-04T13:21:37;12.83;;;5.07;;
15130;SDS011;7666;50.920;4.628;2023-03-04T13:24:45;11.90;;;4.87;;
15130;SDS011;7666;50.920;4.628;2023-03-04T13:27:45;10.17;;;4.83;;
15130;SDS011;7666;50.920;4.628;2023-03-04T13:33:44;5.87;;;3.77;;
15130;SDS011;7666;50.920;4.628;2023-03-04T13:36:52;7.77;;;4.30;;
15130;SDS011;7666;50.920;4.628;2023-03-04T13:39:41;7.47;;;4.17;;
15130;SDS011;7666;50.920;4.628;2023-03-04T13:42:38;6.67;;;4.00;;
15130;SDS011;7666;50.920;4.628;2023-03-04T13:45:29;10.23;;;5.30;;
15130;SDS011;7666;50.920;4.628;2023-03-04T13:48:22;7.17;;;4.60;;
15130;SDS011;7666;50.920;4.628;2023-03-04T13:57:16;5.57;;;3.90;;
15130;SDS011;7666;50.920;4.628;2023-03-04T14:00:09;5.97;;;4.00;;
15130;SDS011;7666;50.920;4.628;2023-03-04T14:03:10;6.30;;;4.03;;
15130;SDS011;7666;50.920;4.628;2023-03-04T14:08:59;4.97;;;4.03;;
15130;SDS011;7666;50.920;4.628;2023-03-04T14:12:00;6.73;;;4.97;;
15130;SDS011;7666;50.920;4.628;2023-03-04T14:14:52;5.43;;;4.83;;
15130;SDS011;7666;50.920;4.628;2023-03-04T14:17:43;7.23;;;5.53;;
15130;SDS011;7666;50.920;4.628;2023-03-04T14:20:33;6.47;;;5.87;;
15130;SDS011;7666;50.920;4.628;2023-03-04T14:23:27;8.40;;;5.87;;
15130;SDS011;7666;50.920;4.628;2023-03-04T14:26:20;9.50;;;5.97;;
15130;SDS011;7666;50.920;4.628;2023-03-04T14:29:25;6.93;;;5.90;;
15130;SDS011;7666;50.920;4.628;2023-03-04T14:32:13;7.73;;;6.13;;
15130;SDS011;7666;50.920;4.628;2023-03-04T14:35:03;7.73;;;5.70;;
15130;SDS011;7666;50.920;4.628;2023-03-04T14:40:52;6.50;;;5.80;;
15130;SDS011;7666;50.920;4.628;2023-03-04T14:46:57;6.87;;;5.60;;
15130;SDS011;7666;50.920;4.628;2023-03-04T14:49:49;6.20;;;5.30;;
15130;SDS011;7666;50.920;4.628;2023-03-04T14:52:37;7.60;;;5.57;;
15130;SDS011;7666;50.920;4.628;2023-03-04T14:55:25;5.30;;;4.80;;
15130;SDS011;7666;50.920;4.628;2023-03-04T14:58:19;5.63;;;4.87;;
15130;SDS011;7666;50.920;4.628;2023-03-04T15:01:14;5.53;;;5.03;;
15130;SDS011;7666;50.920;4.628;2023-03-04T15:06:52;7.13;;;4.73;;
15130;SDS011;7666;50.920;4.628;2023-03-04T15:09:38;5.47;;;4.60;;
15130;SDS011;7666;50.920;4.628;2023-03-04T15:12:29;5.70;;;3.90;;
15130;SDS011;7666;50.920;4.628;2023-03-04T15:18:26;6.80;;;4.70;;
15130;SDS011;7666;50.920;4.628;2023-03-04T15:21:27;5.87;;;5.03;;
15130;SDS011;7666;50.920;4.628;2023-03-04T15:24:31;4.93;;;4.37;;
15130;SDS011;7666;50.920;4.628;2023-03-04T15:27:17;5.50;;;4.30;;
15130;SDS011;7666;50.920;4.628;2023-03-04T15:30:15;4.47;;;4.00;;
15130;SDS011;7666;50.920;4.628;2023-03-04T15:33:04;6.23;;;3.80;;
15130;SDS011;7666;50.920;4.628;2023-03-04T15:35:58;10.23;;;3.63;;
15130;SDS011;7666;50.920;4.628;2023-03-04T15:38:46;6.73;;;3.40;;
15130;SDS011;7666;50.920;4.628;2023-03-04T15:41:34;7.53;;;3.70;;
15130;SDS011;7666;50.920;4.628;2023-03-04T15:44:20;4.87;;;3.13;;
15130;SDS011;7666;50.920;4.628;2023-03-04T15:47:07;4.17;;;2.90;;
15130;SDS011;7666;50.920;4.628;2023-03-04T15:49:57;8.03;;;3.57;;
15130;SDS011;7666;50.920;4.628;2023-03-04T15:52:43;6.30;;;3.20;;
15130;SDS011;7666;50.920;4.628;2023-03-04T15:55:29;6.97;;;2.87;;
15130;SDS011;7666;50.920;4.628;2023-03-04T15:58:16;6.33;;;3.63;;
15130;SDS011;7666;50.920;4.628;2023-03-04T16:01:03;4.87;;;4.00;;
15130;SDS011;7666;50.920;4.628;2023-03-04T16:03:50;5.30;;;3.50;;
15130;SDS011;7666;50.920;4.628;2023-03-04T16:06:37;10.33;;;4.77;;
15130;SDS011;7666;50.920;4.628;2023-03-04T16:09:23;7.27;;;3.10;;
15130;SDS011;7666;50.920;4.628;2023-03-04T16:12:10;10.80;;;4.17;;
15130;SDS011;7666;50.920;4.628;2023-03-04T16:14:56;5.47;;;3.03;;
15130;SDS011;7666;50.920;4.628;2023-03-04T16:17:42;4.87;;;2.40;;
15130;SDS011;7666;50.920;4.628;2023-03-04T16:20:28;6.20;;;3.00;;
15130;SDS011;7666;50.920;4.628;2023-03-04T16:23:22;5.17;;;2.77;;
15130;SDS011;7666;50.920;4.628;2023-03-04T16:26:10;5.37;;;2.30;;
15130;SDS011;7666;50.920;4.628;2023-03-04T16:28:58;6.97;;;3.13;;
15130;SDS011;7666;50.920;4.628;2023-03-04T16:31:44;5.60;;;2.80;;
15130;SDS011;7666;50.920;4.628;2023-03-04T16:34:30;4.00;;;2.60;;
15130;SDS011;7666;50.920;4.628;2023-03-04T16:37:17;6.13;;;2.77;;
15130;SDS011;7666;50.920;4.628;2023-03-04T16:40:04;6.43;;;2.90;;
15130;SDS011;7666;50.920;4.628;2023-03-04T16:42:51;3.47;;;2.43;;
15130;SDS011;7666;50.920;4.628;2023-03-04T16:45:38;4.10;;;2.70;;
15130;SDS011;7666;50.920;4.628;2023-03-04T16:48:24;4.30;;;2.33;;
15130;SDS011;7666;50.920;4.628;2023-03-04T16:51:19;6.07;;;2.53;;
15130;SDS011;7666;50.920;4.628;2023-03-04T16:54:09;4.17;;;2.53;;
15130;SDS011;7666;50.920;4.628;2023-03-04T16:57:00;5.43;;;2.60;;
15130;SDS011;7666;50.920;4.628;2023-03-04T16:59:46;4.10;;;2.33;;
15130;SDS011;7666;50.920;4.628;2023-03-04T17:02:32;3.40;;;2.40;;
15130;SDS011;7666;50.920;4.628;2023-03-04T17:05:19;4.43;;;2.30;;
15130;SDS011;7666;50.920;4.628;2023-03-04T17:08:07;5.40;;;2.70;;
15130;SDS011;7666;50.920;4.628;2023-03-04T17:10:53;9.43;;;2.53;;
15130;SDS011;7666;50.920;4.628;2023-03-04T17:13:39;4.97;;;2.33;;
15130;SDS011;7666;50.920;4.628;2023-03-04T17:16:25;6.40;;;2.50;;
15130;SDS011;7666;50.920;4.628;2023-03-04T17:19:11;8.63;;;2.83;;
15130;SDS011;7666;50.920;4.628;2023-03-04T17:22:00;8.60;;;2.97;;
15130;SDS011;7666;50.920;4.628;2023-03-04T17:24:47;7.47;;;2.90;;
15130;SDS011;7666;50.920;4.628;2023-03-04T17:27:33;4.73;;;2.50;;
15130;SDS011;7666;50.920;4.628;2023-03-04T17:30:20;5.37;;;2.60;;
15130;SDS011;7666;50.920;4.628;2023-03-04T17:33:06;8.30;;;3.53;;
15130;SDS011;7666;50.920;4.628;2023-03-04T17:35:52;5.23;;;3.33;;
15130;SDS011;7666;50.920;4.628;2023-03-04T17:38:38;8.20;;;3.77;;
15130;SDS011;7666;50.920;4.628;2023-03-04T17:41:24;7.10;;;4.10;;
15130;SDS011;7666;50.920;4.628;2023-03-04T17:44:11;7.33;;;4.53;;
15130;SDS011;7666;50.920;4.628;2023-03-04T17:46:59;6.87;;;4.87;;
15130;SDS011;7666;50.920;4.628;2023-03-04T17:49:45;8.70;;;5.53;;
15130;SDS011;7666;50.920;4.628;2023-03-04T17:52:31;8.30;;;4.90;;
15130;SDS011;7666;50.920;4.628;2023-03-04T17:55:18;7.50;;;5.03;;
15130;SDS011;7666;50.920;4.628;2023-03-04T17:58:04;8.03;;;5.20;;
15130;SDS011;7666;50.920;4.628;2023-03-04T18:00:50;7.37;;;4.57;;
15130;SDS011;7666;50.920;4.628;2023-03-04T18:03:38;6.57;;;4.80;;
15130;SDS011;7666;50.920;4.628;2023-03-04T18:06:24;8.10;;;4.80;;
15130;SDS011;7666;50.920;4.628;2023-03-04T18:09:10;5.67;;;4.40;;
15130;SDS011;7666;50.920;4.628;2023-03-04T18:11:56;6.03;;;5.10;;
15130;SDS011;7666;50.920;4.628;2023-03-04T18:14:42;5.10;;;4.20;;
15130;SDS011;7666;50.920;4.628;2023-03-04T18:17:28;6.40;;;4.70;;
15130;SDS011;7666;50.920;4.628;2023-03-04T18:20:14;6.57;;;4.63;;
15130;SDS011;7666;50.920;4.628;2023-03-04T18:23:01;5.80;;;5.00;;
15130;SDS011;7666;50.920;4.628;2023-03-04T18:25:47;6.43;;;4.73;;
15130;SDS011;7666;50.920;4.628;2023-03-04T18:28:33;8.20;;;5.13;;
15130;SDS011;7666;50.920;4.628;2023-03-04T18:31:19;8.93;;;4.83;;
15130;SDS011;7666;50.920;4.628;2023-03-04T18:34:07;7.60;;;4.77;;